Time;durP1;ratioP1;P1;durP2;ratioP2;P2;SDS_P1;SDS_P2;PMS_P1;PMS_P2;Temp;Humidity;BMP_temperature;BMP_pressure;BME280_temperature;BME280_humidity;BME280_pressure;Samples;Min_cycle;Max_cycle;Signal;HPM_P1;HPM_P2
2022/09/24 00:01:46;;;;;;;4.47;2.28;;;17.70;99.90;;;;;;5055101;28;20029;-76
2022/09/24 00:04:14;;;;;;;5.25;2.25;;;17.90;99.90;;;;;;5054154;28;20565;-76
2022/09/24 00:06:46;;;;;;;5.63;2.63;;;18.00;99.90;;;;;;5052761;28;20540;-73
2022/09/24 00:09:17;;;;;;;5.00;3.20;;;18.10;99.90;;;;;;5053863;28;20100;-75
2022/09/24 00:11:45;;;;;;;4.47;3.40;;;18.20;99.90;;;;;;5053796;28;20436;-75
2022/09/24 00:14:13;;;;;;;7.20;4.10;;;18.10;99.90;;;;;;5053322;28;20417;-75
2022/09/24 00:16:42;;;;;;;6.88;4.63;;;18.10;99.90;;;;;;5053269;28;20068;-73
2022/09/24 00:19:11;;;;;;;6.40;4.55;;;18.20;99.90;;;;;;5052571;28;20017;-74
2022/09/24 00:21:39;;;;;;;7.20;5.18;;;18.20;99.90;;;;;;5053514;28;20027;-74
2022/09/24 00:26:48;;;;;;;7.57;4.85;;;18.20;99.90;;;;;;5051659;28;20021;-71
2022/09/24 00:27:04;;;;;;;8.80;4.97;;;18.20;99.90;;;;;;5051110;28;20391;-74
2022/09/24 00:29:33;;;;;;;10.23;4.60;;;18.30;99.90;;;;;;5051374;28;20032;-73
2022/09/24 00:32:01;;;;;;;12.55;4.95;;;18.40;99.90;;;;;;5051804;28;20023;-72
2022/09/24 00:34:28;;;;;;;6.75;5.10;;;18.50;99.90;;;;;;5051374;28;20107;-75
2022/09/24 00:36:56;;;;;;;5.22;4.55;;;18.50;99.90;;;;;;5050697;28;20044;-72
2022/09/24 00:39:23;;;;;;;12.85;4.25;;;18.50;99.90;;;;;;5052856;28;20021;-74
2022/09/24 00:41:50;;;;;;;8.13;3.47;;;18.60;99.90;;;;;;5053045;28;20025;-72
2022/09/24 00:44:45;;;;;;;8.50;3.13;;;18.60;99.90;;;;;;5052437;28;20434;-71
2022/09/24 00:47:26;;;;;;;7.20;2.38;;;18.30;99.90;;;;;;5053050;28;20049;-73
2022/09/24 00:50:35;;;;;;;5.95;1.90;;;18.10;99.90;;;;;;5053339;28;20021;-74
2022/09/24 00:53:15;;;;;;;3.22;1.90;;;17.90;99.90;;;;;;4990254;28;20046;-74
2022/09/24 00:55:46;;;;;;;3.28;1.73;;;17.60;99.90;;;;;;4991811;28;20057;-73
2022/09/24 00:58:14;;;;;;;14.65;2.10;;;17.40;99.90;;;;;;5028402;28;20025;-75
2022/09/24 01:00:43;;;;;;;3.50;1.45;;;17.30;99.90;;;;;;5053186;28;20021;-75
2022/09/24 01:03:16;;;;;;;8.00;1.27;;;17.10;99.90;;;;;;5052905;28;20116;-72
2022/09/24 01:05:44;;;;;;;6.60;1.60;;;17.00;99.90;;;;;;5051697;28;20390;-75
2022/09/24 01:08:13;;;;;;;2.88;1.10;;;17.10;99.90;;;;;;5053119;28;20025;-74
2022/09/24 01:10:57;;;;;;;6.57;1.55;;;17.20;99.90;;;;;;5053013;28;20041;-72
2022/09/24 01:13:55;;;;;;;9.00;1.50;;;17.20;99.90;;;;;;5051463;28;20021;-74
2022/09/24 01:16:31;;;;;;;3.97;1.40;;;17.40;99.90;;;;;;5040557;28;20065;-73
2022/09/24 01:19:13;;;;;;;4.38;1.42;;;17.40;99.90;;;;;;5049334;28;20059;-74
2022/09/24 01:21:51;;;;;;;3.17;1.33;;;17.40;99.90;;;;;;5050936;28;20040;-73
2022/09/24 01:24:36;;;;;;;2.20;0.75;;;17.60;99.90;;;;;;5050617;28;20024;-73
2022/09/24 01:27:15;;;;;;;3.65;1.02;;;17.80;99.90;;;;;;5051377;28;20017;-72
2022/09/24 01:29:54;;;;;;;2.83;0.90;;;17.70;99.90;;;;;;5050294;28;20036;-72
2022/09/24 01:32:24;;;;;;;2.08;0.98;;;17.70;99.90;;;;;;5051953;28;20529;-75
2022/09/24 01:35:04;;;;;;;4.45;1.40;;;17.70;99.90;;;;;;5052648;28;20032;-74
2022/09/24 01:37:37;;;;;;;6.35;1.42;;;17.80;99.90;;;;;;5051385;28;20025;-75
2022/09/24 01:40:10;;;;;;;4.15;1.17;;;17.80;99.90;;;;;;5051816;28;20433;-75
2022/09/24 01:42:45;;;;;;;2.78;1.33;;;17.90;99.90;;;;;;5052631;28;20036;-74
2022/09/24 01:45:13;;;;;;;;;;;17.80;99.90;;;;;;5051668;28;20028;-77
2022/09/24 01:47:41;;;;;;;4.43;1.10;;;17.70;99.90;;;;;;5053699;28;20365;-74
2022/09/24 01:50:17;;;;;;;2.05;1.02;;;17.50;99.90;;;;;;5056866;28;20374;-74
2022/09/24 01:53:32;;;;;;;4.30;0.93;;;17.30;99.90;;;;;;5056359;28;20013;-75
2022/09/24 01:56:07;;;;;;;4.97;0.95;;;17.10;99.90;;;;;;5040965;28;20053;-74
2022/09/24 01:58:52;;;;;;;2.40;0.82;;;17.00;99.90;;;;;;5057784;28;20028;-74
2022/09/24 02:01:30;;;;;;;7.75;1.17;;;16.90;99.90;;;;;;5056345;28;20098;-75
2022/09/24 02:04:05;;;;;;;3.80;1.10;;;16.70;99.90;;;;;;5053943;28;20052;-75
2022/09/24 02:06:35;;;;;;;6.65;1.08;;;16.50;99.90;;;;;;5055827;28;20024;-72
2022/09/24 02:09:03;;;;;;;6.85;1.38;;;16.40;99.90;;;;;;5056086;28;20486;-76
2022/09/24 02:11:32;;;;;;;2.50;1.08;;;16.30;99.90;;;;;;5054621;28;20029;-74
2022/09/24 02:14:11;;;;;;;3.42;0.80;;;16.30;99.90;;;;;;5055911;28;20031;-75
2022/09/24 02:16:47;;;;;;;4.72;1.20;;;16.10;99.90;;;;;;5053511;28;20145;-72
2022/09/24 02:19:27;;;;;;;0.80;0.40;;;15.90;99.90;;;;;;5052942;28;20024;-73
2022/09/24 02:21:56;;;;;;;1.67;0.40;;;15.80;99.90;;;;;;5055231;28;20104;-73
2022/09/24 02:24:36;;;;;;;0.90;0.55;;;15.80;99.90;;;;;;5055943;28;20021;-72
2022/09/24 02:27:04;;;;;;;1.70;0.40;;;15.70;99.90;;;;;;5054193;28;20017;-73
2022/09/24 02:29:31;;;;;;;0.70;0.40;;;15.70;99.90;;;;;;5054768;28;20021;-72
2022/09/24 02:32:00;;;;;;;1.20;0.40;;;15.60;99.90;;;;;;5055097;28;20024;-76
2022/09/24 02:34:37;;;;;;;3.45;0.52;;;15.60;99.90;;;;;;5055400;28;20037;-73
2022/09/24 02:37:13;;;;;;;1.17;0.45;;;15.50;99.90;;;;;;5054217;28;20153;-75
2022/09/24 02:39:41;;;;;;;1.58;0.30;;;15.50;99.90;;;;;;5055244;28;20066;-72
2022/09/24 02:42:12;;;;;;;3.15;0.73;;;15.50;99.90;;;;;;5055074;28;20042;-72
2022/09/24 02:44:40;;;;;;;3.47;0.30;;;15.50;99.90;;;;;;5055242;28;20024;-72
2022/09/24 02:47:07;;;;;;;2.58;0.73;;;15.40;99.90;;;;;;5055290;28;20029;-72
2022/09/24 02:49:35;;;;;;;0.85;0.38;;;15.30;99.90;;;;;;5053259;28;20024;-73
2022/09/24 02:52:03;;;;;;;5.20;0.98;;;15.30;99.90;;;;;;5055366;28;20017;-71
2022/09/24 02:54:31;;;;;;;1.95;0.30;;;15.20;99.90;;;;;;5054814;28;20063;-72
2022/09/24 02:56:58;;;;;;;1.83;0.60;;;15.20;99.90;;;;;;5054914;28;20028;-72
2022/09/24 02:59:25;;;;;;;3.50;0.70;;;15.10;99.90;;;;;;5054824;28;20025;-71
2022/09/24 03:01:53;;;;;;;1.85;0.52;;;15.10;99.90;;;;;;5052874;28;20045;-71
2022/09/24 03:04:20;;;;;;;2.55;0.75;;;15.10;99.90;;;;;;5055289;28;20037;-73
2022/09/24 03:06:48;;;;;;;2.75;0.60;;;15.10;99.90;;;;;;5054275;28;20033;-73
2022/09/24 03:09:20;;;;;;;4.43;0.50;;;15.00;99.90;;;;;;5055035;28;20053;-71
2022/09/24 03:11:47;;;;;;;1.45;0.50;;;15.00;99.90;;;;;;5055014;28;20025;-72
2022/09/24 03:14:15;;;;;;;2.53;0.52;;;15.00;99.90;;;;;;5052733;28;20436;-72
2022/09/24 03:16:42;;;;;;;3.10;0.52;;;14.90;99.90;;;;;;5055086;28;20029;-73
2022/09/24 03:19:09;;;;;;;3.95;0.52;;;14.90;99.90;;;;;;5055156;28;20478;-73
2022/09/24 03:21:37;;;;;;;0.95;0.30;;;14.90;99.90;;;;;;5055110;28;20036;-76
2022/09/24 03:24:04;;;;;;;1.50;0.50;;;14.90;99.90;;;;;;5055240;28;20096;-77
2022/09/24 03:26:32;;;;;;;1.70;0.60;;;15.00;99.90;;;;;;5054909;28;20029;-77
2022/09/24 03:28:59;;;;;;;2.33;0.38;;;15.00;99.90;;;;;;5055046;28;20025;-77
2022/09/24 03:31:26;;;;;;;1.52;0.60;;;15.00;99.90;;;;;;5055202;28;20020;-78
2022/09/24 03:33:54;;;;;;;3.17;0.50;;;15.00;99.90;;;;;;5052298;28;20021;-78
2022/09/24 03:36:27;;;;;;;1.52;0.80;;;15.00;99.90;;;;;;5054581;28;20033;-77
2022/09/24 03:38:56;;;;;;;3.88;0.40;;;14.90;99.90;;;;;;5052330;28;20486;-78
2022/09/24 03:41:26;;;;;;;1.02;0.30;;;14.90;99.90;;;;;;5054780;28;20025;-74
2022/09/24 03:43:54;;;;;;;3.30;0.65;;;14.90;99.90;;;;;;5050850;28;20359;-78
2022/09/24 03:46:27;;;;;;;3.67;0.57;;;14.90;99.90;;;;;;5054894;28;20066;-79
2022/09/24 03:48:55;;;;;;;2.55;1.00;;;14.90;99.90;;;;;;5052339;28;20025;-79
2022/09/24 03:51:23;;;;;;;1.73;0.57;;;14.90;99.90;;;;;;5054700;28;20020;-79
2022/09/24 03:53:50;;;;;;;5.97;0.40;;;14.70;99.90;;;;;;5054598;28;20017;-77
2022/09/24 03:56:17;;;;;;;2.72;0.73;;;14.70;99.90;;;;;;5054045;28;20032;-75
2022/09/24 03:58:46;;;;;;;2.38;0.73;;;14.60;99.90;;;;;;5054182;28;20423;-72
2022/09/24 04:01:18;;;;;;;5.25;0.90;;;14.60;99.90;;;;;;5051772;28;20108;-74
2022/09/24 04:03:46;;;;;;;2.35;0.80;;;14.50;99.90;;;;;;5054162;28;20033;-72
2022/09/24 04:06:14;;;;;;;4.22;0.60;;;14.40;99.90;;;;;;5051405;28;20024;-83
2022/09/24 04:08:41;;;;;;;1.20;0.57;;;14.40;99.90;;;;;;5054376;28;20013;-76
2022/09/24 04:11:08;;;;;;;4.35;1.25;;;14.30;99.90;;;;;;5053631;28;20078;-79
2022/09/24 04:13:36;;;;;;;3.90;1.63;;;14.20;99.90;;;;;;5054116;28;20484;-72
2022/09/24 04:16:04;;;;;;;4.32;1.60;;;14.20;99.90;;;;;;5053245;28;20091;-81
2022/09/24 04:18:31;;;;;;;4.05;1.52;;;14.20;99.90;;;;;;5053733;28;20032;-75
2022/09/24 04:21:01;;;;;;;3.97;0.85;;;14.10;99.90;;;;;;5053819;28;20024;-76
2022/09/24 04:23:30;;;;;;;2.90;0.85;;;14.10;99.90;;;;;;5053226;28;20277;-78
2022/09/24 04:26:00;;;;;;;3.85;0.95;;;14.10;99.90;;;;;;5052210;28;20030;-75
2022/09/24 04:33:39;;;;;;;3.50;0.88;;;14.10;99.90;;;;;;5080151;23;20114;-73
2022/09/24 04:36:07;;;;;;;8.02;0.68;;;14.10;99.90;;;;;;5003182;28;20035;-77
2022/09/24 04:38:34;;;;;;;2.53;0.70;;;14.10;99.90;;;;;;5000308;28;20034;-75
2022/09/24 04:41:08;;;;;;;2.35;0.93;;;14.10;99.90;;;;;;5003947;28;20041;-76
2022/09/24 04:43:35;;;;;;;8.35;1.10;;;14.20;99.90;;;;;;5003335;28;20492;-78
2022/09/24 04:46:03;;;;;;;3.55;0.60;;;14.10;99.90;;;;;;5002544;28;20038;-78
2022/09/24 04:48:31;;;;;;;2.58;0.90;;;14.20;99.90;;;;;;5002314;28;20022;-77
2022/09/24 04:51:01;;;;;;;3.00;1.42;;;14.30;99.90;;;;;;4999851;28;20038;-75
2022/09/24 04:53:28;;;;;;;4.93;1.05;;;14.30;99.90;;;;;;5001765;28;20367;-78
2022/09/24 04:55:55;;;;;;;4.05;0.80;;;14.30;99.90;;;;;;5002103;28;20109;-76
2022/09/24 04:58:23;;;;;;;3.72;1.15;;;14.40;99.90;;;;;;4991916;28;20453;-75
2022/09/24 05:00:50;;;;;;;5.03;0.95;;;14.50;99.90;;;;;;4992481;28;20390;-75
2022/09/24 05:03:20;;;;;;;2.40;0.77;;;14.50;99.90;;;;;;4999100;28;20027;-77
2022/09/24 05:05:47;;;;;;;3.88;1.45;;;14.60;99.90;;;;;;4992737;28;20033;-77
2022/09/24 05:08:15;;;;;;;3.42;0.82;;;14.70;99.90;;;;;;4995251;28;20152;-80
2022/09/24 05:10:43;;;;;;;4.40;0.85;;;14.80;99.90;;;;;;4986837;28;20032;-80
2022/09/24 05:13:10;;;;;;;1.50;0.77;;;14.90;99.90;;;;;;4991729;28;20034;-79
2022/09/24 05:15:37;;;;;;;2.75;0.63;;;14.90;99.90;;;;;;4985410;28;20035;-72
2022/09/24 05:18:05;;;;;;;4.30;1.33;;;15.00;99.90;;;;;;4988142;28;20031;-73
2022/09/24 05:20:33;;;;;;;4.72;0.77;;;15.00;99.90;;;;;;4986263;28;20128;-74
2022/09/24 05:23:00;;;;;;;2.78;0.73;;;15.10;99.90;;;;;;4987666;28;20033;-74
2022/09/24 05:25:27;;;;;;;2.15;0.90;;;15.20;99.90;;;;;;4985836;28;20053;-74
2022/09/24 05:27:55;;;;;;;2.83;0.90;;;15.30;99.90;;;;;;4992877;28;20113;-75
2022/09/24 05:30:25;;;;;;;5.03;1.00;;;15.20;99.90;;;;;;4993093;28;20030;-74
2022/09/24 05:32:52;;;;;;;2.65;0.80;;;15.30;99.90;;;;;;4993441;28;20042;-76
2022/09/24 05:35:23;;;;;;;3.83;1.45;;;15.50;99.90;;;;;;4993059;28;20026;-73
2022/09/24 05:37:54;;;;;;;3.42;1.23;;;15.50;99.90;;;;;;4993351;28;20042;-74
2022/09/24 05:43:07;;;;;;;4.28;1.00;;;15.70;99.90;;;;;;4991950;28;20037;-74
2022/09/24 05:45:34;;;;;;;3.92;0.95;;;15.80;99.90;;;;;;4990486;28;20030;-74
2022/09/24 05:48:02;;;;;;;3.58;1.30;;;15.80;99.90;;;;;;4992229;28;20019;-75
2022/09/24 05:50:31;;;;;;;3.85;1.45;;;16.00;99.90;;;;;;4992118;28;20022;-73
2022/09/24 05:52:59;;;;;;;4.10;1.08;;;15.90;99.90;;;;;;4993343;28;20022;-74
2022/09/24 05:55:26;;;;;;;1.95;0.80;;;15.90;99.90;;;;;;5005849;28;20474;-75
2022/09/24 05:57:54;;;;;;;3.72;1.02;;;16.00;99.90;;;;;;4996234;28;20057;-74
2022/09/24 06:00:21;;;;;;;2.60;1.25;;;15.90;99.90;;;;;;4995274;28;20022;-74
2022/09/24 06:02:49;;;;;;;6.25;1.33;;;15.90;99.90;;;;;;4994951;28;20050;-74
2022/09/24 06:05:16;;;;;;;2.35;1.00;;;15.90;99.90;;;;;;5007393;28;20032;-75
2022/09/24 06:07:44;;;;;;;3.95;1.05;;;15.80;99.90;;;;;;5001813;28;20041;-76
2022/09/24 06:10:11;;;;;;;4.85;1.42;;;15.80;99.90;;;;;;4991674;28;20034;-78
2022/09/24 06:12:39;;;;;;;5.47;0.82;;;15.80;99.90;;;;;;4991209;28;20026;-78
2022/09/24 06:15:07;;;;;;;6.50;0.98;;;15.70;99.90;;;;;;4991806;28;20093;-79
2022/09/24 06:17:34;;;;;;;3.17;0.80;;;15.60;99.90;;;;;;4991586;28;20080;-75
2022/09/24 06:20:01;;;;;;;6.18;1.13;;;15.60;99.90;;;;;;4991892;28;20026;-76
2022/09/24 06:22:28;;;;;;;1.95;0.90;;;15.60;99.90;;;;;;4996536;28;20471;-76
2022/09/24 06:24:56;;;;;;;4.32;0.70;;;15.50;99.90;;;;;;4994115;28;20018;-81
2022/09/24 06:27:23;;;;;;;3.83;1.35;;;15.50;99.90;;;;;;4992799;28;20022;-73
2022/09/24 06:29:51;;;;;;;4.13;1.02;;;15.50;99.90;;;;;;5622575;23;20049;-70
2022/09/24 06:32:18;;;;;;;2.75;0.82;;;15.50;99.90;;;;;;5004907;28;20026;-68
2022/09/24 06:34:46;;;;;;;3.80;1.13;;;15.50;99.90;;;;;;5001007;28;20342;-71
2022/09/24 06:37:13;;;;;;;3.25;0.75;;;15.50;99.90;;;;;;5008211;28;20041;-71
2022/09/24 06:39:41;;;;;;;8.82;1.70;;;15.60;99.90;;;;;;5006898;28;20385;-71
2022/09/24 06:42:09;;;;;;;4.93;0.80;;;15.60;99.90;;;;;;5010485;28;20029;-71
2022/09/24 06:44:36;;;;;;;3.13;1.00;;;15.60;99.90;;;;;;5007470;28;20027;-70
2022/09/24 06:47:03;;;;;;;2.45;0.82;;;15.60;99.90;;;;;;5006405;28;20029;-70
2022/09/24 06:49:31;;;;;;;3.53;1.35;;;15.60;99.90;;;;;;4987945;28;20030;-70
2022/09/24 06:51:58;;;;;;;5.75;0.98;;;15.60;99.90;;;;;;4998809;28;20048;-71
2022/09/24 06:54:26;;;;;;;2.63;0.93;;;15.50;99.90;;;;;;5007730;28;20026;-72
2022/09/24 06:56:53;;;;;;;4.00;1.25;;;15.40;99.90;;;;;;5008271;28;20401;-70
2022/09/24 06:59:20;;;;;;;2.55;1.02;;;15.30;99.90;;;;;;5003094;28;20060;-73
2022/09/24 07:01:48;;;;;;;3.05;0.95;;;15.30;99.90;;;;;;4999678;28;20040;-70
2022/09/24 07:04:15;;;;;;;3.58;0.98;;;15.20;99.90;;;;;;4995158;28;20069;-71
2022/09/24 07:09:28;;;;;;;5.30;1.05;;;15.20;99.90;;;;;;5006136;28;20069;-72
2022/09/24 07:11:57;;;;;;;1.88;0.88;;;15.10;99.90;;;;;;4999932;28;20052;-71
2022/09/24 07:14:24;;;;;;;4.63;1.10;;;15.00;99.90;;;;;;4997069;28;20438;-69
2022/09/24 07:16:52;;;;;;;6.22;1.42;;;15.10;99.90;;;;;;5011693;28;20121;-70
2022/09/24 07:19:20;;;;;;;3.88;0.93;;;15.00;99.90;;;;;;5009601;28;20401;-70
2022/09/24 07:21:47;;;;;;;1.80;1.02;;;15.00;99.90;;;;;;5002745;28;20042;-70
2022/09/24 07:24:14;;;;;;;7.22;1.58;;;15.00;99.90;;;;;;4998572;28;20501;-71
2022/09/24 07:26:42;;;;;;;2.63;0.88;;;14.90;99.90;;;;;;5006217;28;20027;-71
2022/09/24 07:29:09;;;;;;;3.85;1.27;;;14.90;99.90;;;;;;5010587;28;20018;-70
2022/09/24 07:31:36;;;;;;;3.60;1.05;;;14.80;99.90;;;;;;4999663;28;20470;-71
2022/09/24 07:34:07;;;;;;;2.97;1.30;;;14.80;99.90;;;;;;4995595;28;20031;-70
2022/09/24 07:36:35;;;;;;;6.38;0.90;;;14.70;99.90;;;;;;4996750;28;20038;-71
2022/09/24 07:39:03;;;;;;;2.75;1.40;;;14.70;99.90;;;;;;4995417;28;20018;-70
2022/09/24 07:41:30;;;;;;;3.30;1.50;;;14.70;99.90;;;;;;4991949;28;20034;-71
2022/09/24 07:43:58;;;;;;;2.10;1.13;;;14.60;99.90;;;;;;4983760;28;20026;-71
2022/09/24 07:46:25;;;;;;;4.00;1.38;;;14.60;99.90;;;;;;4984610;28;20087;-70
2022/09/24 07:48:57;;;;;;;4.88;1.08;;;14.60;99.90;;;;;;4983569;28;20018;-70
2022/09/24 07:51:26;;;;;;;5.18;1.50;;;14.40;99.90;;;;;;4984230;28;20093;-71
2022/09/24 07:53:55;;;;;;;2.63;1.23;;;14.40;99.90;;;;;;4983849;28;20015;-71
2022/09/24 07:56:23;;;;;;;2.67;1.35;;;14.40;99.90;;;;;;4991971;28;20038;-71
2022/09/24 07:58:52;;;;;;;6.93;1.40;;;14.30;99.90;;;;;;4991803;28;20022;-71
2022/09/24 08:01:20;;;;;;;5.05;1.50;;;14.20;99.90;;;;;;4990840;28;20537;-70
2022/09/24 08:03:47;;;;;;;2.83;1.52;;;14.10;99.90;;;;;;4991379;28;20493;-71
2022/09/24 08:06:14;;;;;;;2.80;1.70;;;14.00;99.90;;;;;;4991345;28;20380;-70
2022/09/24 08:08:45;;;;;;;5.90;1.80;;;14.00;99.90;;;;;;4987342;28;20058;-70
2022/09/24 08:11:13;;;;;;;2.20;1.33;;;14.00;99.90;;;;;;4982373;28;20052;-71
2022/09/24 08:13:40;;;;;;;2.90;1.65;;;14.00;99.90;;;;;;4977752;28;20022;-70
2022/09/24 08:16:08;;;;;;;3.90;1.70;;;13.90;99.90;;;;;;4981377;28;20034;-71
2022/09/24 08:18:35;;;;;;;2.13;1.63;;;13.80;99.90;;;;;;4978737;28;20399;-71
2022/09/24 08:21:08;;;;;;;3.67;1.40;;;13.80;99.90;;;;;;4982735;28;20037;-71
2022/09/24 08:23:36;;;;;;;2.97;1.65;;;13.80;99.90;;;;;;4978463;28;20019;-70
2022/09/24 08:26:04;;;;;;;4.95;1.80;;;13.80;99.90;;;;;;4982175;28;20115;-71
2022/09/24 08:28:31;;;;;;;3.53;1.67;;;13.80;99.90;;;;;;4985656;28;20470;-71
2022/09/24 08:31:00;;;;;;;3.50;1.75;;;13.80;99.90;;;;;;4989973;28;20042;-71
2022/09/24 08:33:28;;;;;;;3.50;1.50;;;13.70;99.90;;;;;;4984597;28;20022;-71
2022/09/24 08:35:58;;;;;;;5.47;1.67;;;13.70;99.90;;;;;;4986018;28;20037;-71
2022/09/24 08:38:26;;;;;;;5.15;1.83;;;13.70;99.90;;;;;;4986112;28;20030;-71
2022/09/24 08:41:13;;;;;;;8.25;2.08;;;13.70;99.90;;;;;;4986978;28;20081;-71
2022/09/24 08:43:53;;;;;;;4.85;1.65;;;13.70;99.90;;;;;;4983561;28;20042;-71
2022/09/24 08:49:34;;;;;;;2.50;1.58;;;13.60;99.90;;;;;;4984869;28;20436;-71
2022/09/24 08:52:11;;;;;;;7.47;2.53;;;13.60;99.90;;;;;;4991417;28;20022;-72
2022/09/24 08:54:40;;;;;;;5.60;1.73;;;13.60;99.90;;;;;;4994824;28;20053;-71
2022/09/24 08:57:13;;;;;;;1.95;1.45;;;13.50;99.90;;;;;;4996133;28;20038;-70
2022/09/24 08:59:45;;;;;;;5.00;1.63;;;13.50;99.90;;;;;;4991517;28;20014;-71
2022/09/24 09:02:39;;;;;;;4.85;2.25;;;13.50;99.90;;;;;;4994974;28;20033;-74
2022/09/24 09:05:15;;;;;;;8.88;4.43;;;13.50;99.90;;;;;;4992354;28;20057;-72
2022/09/24 09:07:52;;;;;;;7.05;4.40;;;13.40;99.90;;;;;;4988949;28;20046;-75
2022/09/24 09:10:27;;;;;;;7.10;4.35;;;13.40;99.90;;;;;;4984863;28;20026;-71
2022/09/24 09:13:18;;;;;;;6.15;3.42;;;13.50;99.90;;;;;;4989899;28;20030;-73
2022/09/24 09:16:02;;;;;;;5.18;3.47;;;13.40;99.90;;;;;;4985311;28;20569;-72
2022/09/24 09:18:38;;;;;;;5.55;3.60;;;13.40;99.90;;;;;;4986794;28;20122;-73
2022/09/24 09:21:25;;;;;;;5.50;3.35;;;13.40;99.90;;;;;;4984435;28;20031;-72
2022/09/24 09:23:56;;;;;;;5.45;4.40;;;13.40;99.90;;;;;;4984960;28;20467;-73
2022/09/24 09:26:24;;;;;;;7.60;3.95;;;13.40;99.90;;;;;;4988198;28;20026;-75
2022/09/24 09:28:53;;;;;;;7.80;3.92;;;13.40;99.90;;;;;;4986324;28;20018;-72
2022/09/24 09:31:57;;;;;;;6.75;4.88;;;13.30;99.90;;;;;;4986115;28;20384;-74
2022/09/24 09:34:28;;;;;;;8.25;3.80;;;13.30;99.90;;;;;;4985235;28;20030;-74
2022/09/24 09:37:09;;;;;;;7.75;4.03;;;13.20;99.90;;;;;;4989093;28;20038;-73
2022/09/24 09:39:54;;;;;;;7.15;3.63;;;13.30;99.90;;;;;;4986424;28;20443;-73
2022/09/24 09:42:25;;;;;;;6.67;2.30;;;13.30;99.90;;;;;;4986633;28;20033;-70
2022/09/24 09:44:52;;;;;;;5.60;2.78;;;13.30;99.90;;;;;;4986134;28;20073;-72
2022/09/24 09:47:42;;;;;;;10.63;2.67;;;13.20;99.90;;;;;;4985650;28;20123;-73
2022/09/24 09:50:27;;;;;;;5.85;2.83;;;13.20;99.90;;;;;;4985556;28;20037;-70
2022/09/24 09:52:55;;;;;;;4.10;2.92;;;13.20;99.90;;;;;;4990070;28;20026;-70
2022/09/24 09:55:28;;;;;;;3.97;3.17;;;13.20;99.90;;;;;;4984308;28;20034;-72
2022/09/24 09:58:27;;;;;;;4.85;3.30;;;13.20;99.90;;;;;;4985519;28;20496;-72
2022/09/24 10:01:18;;;;;;;8.60;3.30;;;13.10;99.90;;;;;;4989702;28;20491;-73
2022/09/24 10:03:45;;;;;;;5.82;4.07;;;13.10;99.90;;;;;;4992522;28;20030;-72
2022/09/24 10:06:25;;;;;;;6.60;4.10;;;13.00;99.90;;;;;;4991243;28;20033;-72
2022/09/24 10:08:53;;;;;;;9.10;4.25;;;13.00;99.90;;;;;;4992513;28;20029;-76
2022/09/24 10:11:22;;;;;;;7.63;3.63;;;12.90;99.90;;;;;;4994576;28;20049;-73
2022/09/24 10:14:05;;;;;;;7.30;3.25;;;12.90;99.90;;;;;;5007704;28;20393;-72
2022/09/24 10:16:42;;;;;;;5.50;3.45;;;12.90;99.90;;;;;;5014632;28;20034;-72
2022/09/24 10:19:28;;;;;;;3.75;2.75;;;12.90;99.90;;;;;;5015167;28;20026;-72
2022/09/24 10:21:58;;;;;;;6.70;3.47;;;12.80;99.90;;;;;;5015306;28;20030;-71
2022/09/24 10:24:27;;;;;;;7.72;3.80;;;12.70;99.90;;;;;;5015211;28;20044;-72
2022/09/24 10:26:55;;;;;;;4.93;3.00;;;12.80;99.90;;;;;;5015181;28;20018;-72
2022/09/24 10:32:21;;;;;;;5.55;4.07;;;12.80;99.90;;;;;;5015648;28;20133;-72
2022/09/24 10:34:57;;;;;;;3.95;3.45;;;12.80;99.90;;;;;;4983398;28;20029;-71
2022/09/24 10:37:25;;;;;;;7.68;4.57;;;12.80;99.90;;;;;;5015105;28;20046;-72
2022/09/24 10:40:00;;;;;;;8.18;4.53;;;12.80;99.90;;;;;;5013431;28;20033;-72
2022/09/24 10:42:28;;;;;;;;;;;12.80;99.90;;;;;;5013747;28;20392;-73
2022/09/24 10:45:02;;;;;;;10.38;4.97;;;12.80;99.90;;;;;;5013335;28;20396;-72
2022/09/24 10:47:44;;;;;;;6.15;4.20;;;12.70;99.90;;;;;;5013477;28;20030;-72
2022/09/24 10:50:26;;;;;;;8.40;4.20;;;12.70;99.90;;;;;;5013181;28;20033;-72
2022/09/24 10:53:29;;;;;;;6.20;3.80;;;12.70;99.90;;;;;;4992737;28;20448;-72
2022/09/24 10:56:15;;;;;;;7.55;4.30;;;12.70;99.90;;;;;;4932998;29;20520;-73
2022/09/24 10:59:20;;;;;;;7.18;4.47;;;12.70;99.90;;;;;;4984500;28;20046;-73
2022/09/24 11:01:53;;;;;;;6.90;4.40;;;12.70;99.90;;;;;;4989021;28;20041;-73
2022/09/24 11:04:49;;;;;;;6.13;4.38;;;12.70;99.90;;;;;;4982140;28;20037;-73
2022/09/24 11:07:34;;;;;;;;;;;12.60;99.90;;;;;;4986101;28;20110;-73
2022/09/24 11:10:18;;;;;;;8.27;4.95;;;12.60;99.90;;;;;;4982028;28;19906;-73
2022/09/24 11:13:31;;;;;;;6.78;4.68;;;12.60;99.90;;;;;;4984574;28;20037;-73
2022/09/24 11:16:14;;;;;;;7.70;4.78;;;12.60;99.90;;;;;;4979022;28;20030;-73
2022/09/24 11:19:09;;;;;;;8.73;6.10;;;12.60;99.90;;;;;;4979517;28;20031;-73
2022/09/24 11:22:00;;;;;;;10.38;6.03;;;12.60;99.90;;;;;;4975955;28;20384;-73
2022/09/24 11:25:00;;;;;;;9.65;5.35;;;12.60;99.90;;;;;;4976944;28;20019;-73
2022/09/24 11:27:55;;;;;;;7.35;5.32;;;12.70;99.90;;;;;;4954303;28;20074;-74
2022/09/24 11:30:35;;;;;;;6.40;5.13;;;12.70;99.90;;;;;;4978021;28;20529;-74
2022/09/24 11:33:35;;;;;;;9.40;5.45;;;12.70;99.90;;;;;;4979104;28;20026;-74
2022/09/24 11:36:03;;;;;;;11.43;7.18;;;12.80;99.90;;;;;;4976980;28;20479;-73
2022/09/24 11:38:39;;;;;;;11.18;7.10;;;12.90;99.90;;;;;;4975643;28;20031;-73
2022/09/24 11:41:36;;;;;;;15.43;6.45;;;12.80;99.90;;;;;;4974870;28;20019;-73
2022/09/24 11:44:42;;;;;;;11.35;7.75;;;12.80;99.90;;;;;;4969075;28;20131;-73
2022/09/24 11:47:15;;;;;;;13.70;7.57;;;12.80;99.90;;;;;;4932743;29;20115;-73
2022/09/24 11:50:00;;;;;;;11.05;7.45;;;12.80;99.90;;;;;;4932253;29;20346;-73
2022/09/24 11:53:00;;;;;;;9.10;6.97;;;12.70;99.90;;;;;;4962409;28;20034;-73
2022/09/24 11:55:43;;;;;;;12.40;7.13;;;12.70;99.90;;;;;;4993305;28;20073;-72
2022/09/24 11:58:25;;;;;;;10.75;6.88;;;12.70;99.90;;;;;;4993658;28;20113;-72
2022/09/24 12:01:08;;;;;;;9.68;6.68;;;12.60;99.90;;;;;;4993967;28;20057;-72
2022/09/24 12:04:11;;;;;;;9.27;6.85;;;12.60;99.90;;;;;;4991922;28;20026;-72
2022/09/24 12:06:51;;;;;;;13.23;6.47;;;12.60;99.90;;;;;;4993752;28;20025;-73
2022/09/24 12:09:21;;;;;;;10.60;6.90;;;12.50;99.90;;;;;;4993556;28;20081;-72
2022/09/24 12:11:54;;;;;;;18.20;13.50;;;12.50;99.90;;;;;;4993246;28;20030;-73
2022/09/24 12:14:44;;;;;;;18.00;11.98;;;12.50;99.90;;;;;;4992575;28;20096;-73
2022/09/24 12:17:20;;;;;;;15.40;7.93;;;12.50;99.90;;;;;;4993060;28;20113;-72
2022/09/24 12:19:57;;;;;;;10.90;6.50;;;12.50;99.90;;;;;;4993277;28;20021;-73
2022/09/24 12:22:26;;;;;;;10.05;7.70;;;12.50;99.90;;;;;;4993468;28;20049;-72
2022/09/24 12:25:00;;;;;;;14.32;8.00;;;12.50;99.90;;;;;;4993445;28;20141;-72
2022/09/24 12:27:38;;;;;;;8.70;5.95;;;12.50;99.90;;;;;;4992880;28;20030;-73
2022/09/24 12:33:24;;;;;;;12.60;7.68;;;12.50;99.90;;;;;;4992585;28;20497;-73
2022/09/24 12:36:13;;;;;;;9.35;6.43;;;12.40;99.90;;;;;;4992278;28;20046;-73
2022/09/24 12:38:47;;;;;;;8.88;5.18;;;12.40;99.90;;;;;;4992933;28;20065;-73
2022/09/24 12:41:46;;;;;;;9.02;5.00;;;12.40;99.90;;;;;;4993228;28;20494;-75
2022/09/24 12:44:53;;;;;;;7.57;5.18;;;12.40;99.90;;;;;;4985352;28;20046;-75
2022/09/24 12:47:35;;;;;;;11.05;5.72;;;12.40;99.90;;;;;;4992734;28;20018;-75
2022/09/24 12:50:07;;;;;;;8.95;5.60;;;12.40;99.90;;;;;;4985267;28;20034;-74
2022/09/24 12:52:40;;;;;;;6.63;4.57;;;12.30;99.90;;;;;;4985039;28;20479;-74
2022/09/24 12:55:29;;;;;;;9.43;3.88;;;12.30;99.90;;;;;;4984713;28;20073;-74
2022/09/24 12:58:26;;;;;;;6.10;3.63;;;12.30;99.90;;;;;;4982946;28;20084;-75
2022/09/24 13:01:12;;;;;;;8.25;4.35;;;12.30;99.90;;;;;;4982837;28;20077;-74
2022/09/24 13:03:41;;;;;;;5.90;3.70;;;12.20;99.90;;;;;;4984525;28;20018;-75
2022/09/24 13:06:31;;;;;;;5.50;3.13;;;12.30;99.90;;;;;;4983178;28;20026;-75
2022/09/24 13:08:59;;;;;;;4.97;2.47;;;12.20;99.90;;;;;;4982801;28;20109;-75
2022/09/24 13:11:30;;;;;;;6.40;2.97;;;12.20;99.90;;;;;;4981942;28;20027;-74
2022/09/24 13:14:20;;;;;;;4.03;2.78;;;12.20;99.90;;;;;;4984690;28;20023;-77
2022/09/24 13:16:51;;;;;;;5.90;3.17;;;12.20;99.90;;;;;;4985102;28;20038;-74
2022/09/24 13:19:33;;;;;;;6.35;3.75;;;12.20;99.90;;;;;;4984307;28;20047;-75
2022/09/24 13:22:01;;;;;;;7.18;3.70;;;12.20;99.90;;;;;;4984617;28;20121;-75
2022/09/24 13:24:33;;;;;;;6.93;3.83;;;12.10;99.90;;;;;;4983138;28;20023;-75
2022/09/24 13:27:31;;;;;;;5.22;3.35;;;12.10;99.90;;;;;;4983910;28;20371;-75
2022/09/24 13:30:14;;;;;;;5.65;3.55;;;12.10;99.90;;;;;;4976152;28;20085;-74
2022/09/24 13:33:46;;;;;;;4.93;3.33;;;12.00;99.90;;;;;;4983619;28;20018;-75
2022/09/24 13:36:34;;;;;;;6.68;3.83;;;12.00;99.90;;;;;;4944131;29;20049;-74
2022/09/24 13:39:22;;;;;;;9.13;4.10;;;12.00;99.90;;;;;;4951810;29;20023;-74
2022/09/24 13:42:08;;;;;;;4.63;4.00;;;11.90;99.90;;;;;;4978366;28;20050;-74